CMA CGM Magellan — 2DTI4 — position and weather

sailwx.info

Track history (hours):
 
Tides and Currents Weather Stations Pressure Air Temp Water Temp Dewpoint Dewpoint Depression Visibility Wind Speed Wind Dir Waves Ship Positions

CMA CGM Magellan

Last reported at 2018-Jul-18 17:17 UTC. Time now 2018-Jul-23 06:04 UTC.
Position N 36°17' E 015°20'.

Length 365 m; draft 14.7 m.

Type: Ship. MMSI: 235081888.

Date/timePositionNaut miles runAvg speedWind from/ knotsBaromVisibWave heightAir tempDewpointWater temp
2018-Jul-18 17:17N 36°17' E 015°20'517.6
2018-Jul-18 17:00N 36°18' E 015°15'918.0
2018-Jul-18 16:30N 36°21' E 015°04'1218.8
2018-Jul-18 15:53N 36°25' E 014°50'719.1
2018-Jul-18 15:30N 36°27' E 014°42'1019.0
2018-Jul-18 15:00N 36°30' E 014°31'1018.9
2018-Jul-18 14:30N 36°35' E 014°20'1818.5
2018-Jul-18 13:30N 36°43' E 013°60'1018.3
2018-Jul-18 12:58N 36°48' E 013°49'918.0
2018-Jul-18 12:29N 36°52' E 013°39'917.9
2018-Jul-18 12:00N 36°56' E 013°30'918.2
2018-Jul-18 11:30N 37°00' E 013°20'1818.1
2018-Jul-18 10:30N 37°09' E 013°00'918.0
2018-Jul-18 10:00N 37°13' E 012°50'917.9
2018-Jul-18 09:30N 37°17' E 012°40'1218.1
2018-Jul-18 08:50N 37°23' E 012°27'618.3
2018-Jul-18 08:30N 37°26' E 012°20'1318.2
2018-Jul-18 07:49N 37°31' E 012°06'618.1
2018-Jul-18 07:30N 37°34' E 011°59'33817.7
2018-Jul-17 12:26N 37°17' E 004°54'918.1
2018-Jul-17 11:56N 37°15' E 004°43'818.3
2018-Jul-17 11:30N 37°14' E 004°33'918.0
2018-Jul-17 11:00N 37°12' E 004°22'918.2
2018-Jul-17 10:30N 37°10' E 004°11'918.0
2018-Jul-17 10:00N 37°08' E 003°60'918.0
2018-Jul-17 09:30N 37°07' E 003°49'1017.9
2018-Jul-17 08:57N 37°05' E 003°37'817.9
2018-Jul-17 08:31N 37°04' E 003°27'1117.7
2018-Jul-17 07:54N 37°02' E 003°14'1717.9
2018-Jul-17 06:57N 36°59' E 002°53'817.8
2018-Jul-17 06:30N 36°57' E 002°43'917.9
2018-Jul-17 06:00N 36°56' E 002°32'918.2
2018-Jul-17 05:30N 36°54' E 002°20'1018.7
2018-Jul-17 04:59N 36°52' E 002°09'918.8
2018-Jul-17 04:30N 36°50' E 001°57'918.7
2018-Jul-17 04:00N 36°49' E 001°46'918.3
2018-Jul-17 03:30N 36°47' E 001°35'918.1
2018-Jul-17 03:00N 36°45' E 001°24'918.2
2018-Jul-17 02:30N 36°44' E 001°12'918.3
2018-Jul-17 02:00N 36°42' E 001°01'1018.6
2018-Jul-17 01:30N 36°40' E 000°50'919.4
2018-Jul-17 01:00N 36°39' E 000°38'919.1
2018-Jul-17 00:30N 36°37' E 000°26'1918.9
2018-Jul-16 23:30N 36°34' E 000°03'918.6
2018-Jul-16 23:00N 36°32' W 000°08'918.1
2018-Jul-16 22:30N 36°30' W 000°19'918.1
2018-Jul-16 22:00N 36°29' W 000°31'918.0
2018-Jul-16 21:30N 36°27' W 000°42'21618.8
2018-Jul-16 10:00N 35°60' W 005°08'1019.4
2018-Jul-16 09:31N 35°58' W 005°20'12818.7
2018-Jul-16 02:40N 36°17' W 007°57'418.2
2018-Jul-16 02:28N 36°18' W 008°01'918.0
2018-Jul-16 01:58N 36°20' W 008°12'10316.0
2018-Jul-15 19:32N 37°30' W 009°45'118.3
2018-Jul-15 19:30N 37°31' W 009°46'1318.4
2018-Jul-15 18:48N 37°43' W 009°49'518.5
2018-Jul-15 18:30N 37°48' W 009°51'1018.5
2018-Jul-15 17:58N 37°58' W 009°54'818.5
2018-Jul-15 17:30N 38°07' W 009°56'918.1
2018-Jul-15 17:00N 38°16' W 009°58'1418.2
2018-Jul-15 16:14N 38°29' W 010°02'418.3
2018-Jul-15 16:00N 38°33' W 010°04'918.8
2018-Jul-15 15:30N 38°42' W 010°06'918.0
2018-Jul-15 15:00N 38°51' W 010°07'918.3
2018-Jul-15 14:30N 39°00' W 010°08'918.1
2018-Jul-15 14:00N 39°09' W 010°08'918.0
2018-Jul-15 13:30N 39°18' W 010°08'1218.1
2018-Jul-15 12:51N 39°30' W 010°08'31317.9
2018-Jul-14 19:20N 44°40' W 009°08'618.3
2018-Jul-14 19:00N 44°45' W 009°04'918.5
2018-Jul-14 18:30N 44°54' W 008°58'918.2
2018-Jul-14 17:59N 45°02' W 008°51'2018.2
2018-Jul-14 16:53N 45°19' W 008°37'818.6
2018-Jul-14 16:25N 45°26' W 008°30'13518.1
2018-Jul-14 08:58N 47°26' W 006°59'2019.5
2018-Jul-14 07:58N 47°43' W 006°47'919.0
2018-Jul-14 07:29N 47°52' W 006°41'2018.8
2018-Jul-14 06:26N 48°08' W 006°25'818.2
2018-Jul-14 06:00N 48°15' W 006°19'918.4
2018-Jul-14 05:30N 48°23' W 006°12'918.2
2018-Jul-14 05:00N 48°31' W 006°06'918.3
2018-Jul-14 04:30N 48°39' W 005°59'918.3
2018-Jul-14 04:00N 48°47' W 005°53'917.7
2018-Jul-14 03:30N 48°53' W 005°43'917.7
2018-Jul-14 03:00N 48°59' W 005°33'918.0
2018-Jul-14 02:30N 49°03' W 005°21'918.0
2018-Jul-14 02:00N 49°08' W 005°09'918.2
2018-Jul-14 01:30N 49°13' W 004°57'918.9
2018-Jul-14 01:00N 49°18' W 004°45'2719.8
2018-Jul-13 23:39N 49°32' W 004°09'1219.8
2018-Jul-13 23:02N 49°39' W 003°54'119.7
2018-Jul-13 23:00N 49°39' W 003°53'1019.4
2018-Jul-13 22:28N 49°45' W 003°40'918.7
2018-Jul-13 21:59N 49°49' W 003°28'918.3
2018-Jul-13 21:30N 49°54' W 003°16'918.3
2018-Jul-13 21:00N 49°58' W 003°04'918.2
2018-Jul-13 20:30N 50°01' W 002°51'917.9
2018-Jul-13 20:00N 50°03' W 002°37'917.4
2018-Jul-13 19:31N 50°03' W 002°24'917.2
2018-Jul-13 19:00N 50°02' W 002°10'917.4
2018-Jul-13 18:31N 49°60' W 001°57'917.7
2018-Jul-13 18:00N 49°57' W 001°44'918.0
2018-Jul-13 17:30N 49°53' W 001°31'917.9
2018-Jul-13 17:00N 49°50' W 001°18'918.3
2018-Jul-13 16:30N 49°46' W 001°05'1019.5
2018-Jul-13 16:00N 49°43' W 000°51'1019.8
2018-Jul-13 15:30N 49°40' W 000°37'1019.6
2018-Jul-13 15:00N 49°36' W 000°23'1019.2
2018-Jul-13 14:30N 49°32' W 000°09'1312.6
2018-Jul-13 13:30N 49°27' E 000°09'1 1.9
2018-Jul-13 12:59N 49°27' E 000°10'0 0.0
2018-Jul-13 12:29N 49°27' E 000°10'0 0.0
2018-Jul-13 11:59N 49°27' E 000°10'0 0.0
2018-Jul-13 11:29N 49°27' E 000°10'0 0.0
2018-Jul-13 10:59N 49°27' E 000°10'0 0.0
2018-Jul-13 10:29N 49°27' E 000°10'0 0.0
2018-Jul-13 09:59N 49°27' E 000°10'0 0.0
2018-Jul-13 09:29N 49°27' E 000°10'0 0.0
2018-Jul-13 08:59N 49°27' E 000°10'0 0.0
2018-Jul-13 08:29N 49°27' E 000°10'0 0.0
2018-Jul-13 07:59N 49°27' E 000°10'0 0.0
2018-Jul-13 07:29N 49°27' E 000°10'0 0.0
2018-Jul-13 06:59N 49°27' E 000°10'0 0.0
2018-Jul-13 06:29N 49°27' E 000°10'0 0.0
2018-Jul-13 05:59N 49°27' E 000°10'0 0.0
2018-Jul-13 05:29N 49°27' E 000°10'0 0.0
2018-Jul-13 04:59N 49°27' E 000°10'0 0.0
2018-Jul-13 04:26N 49°27' E 000°10'0 0.0
2018-Jul-13 03:59N 49°27' E 000°10'0 0.0
2018-Jul-13 03:29N 49°27' E 000°10'0 0.0
2018-Jul-13 02:59N 49°27' E 000°10'0 0.0
2018-Jul-13 02:29N 49°27' E 000°10'0 0.0
2018-Jul-13 01:59N 49°27' E 000°10'0 0.0
2018-Jul-13 01:29N 49°27' E 000°10'0 0.0
2018-Jul-13 00:59N 49°27' E 000°10'0 0.0
2018-Jul-13 00:29N 49°27' E 000°10'0 0.0
2018-Jul-12 23:59N 49°27' E 000°10'0 0.0
2018-Jul-12 23:29N 49°27' E 000°10'0 0.0
2018-Jul-12 22:59N 49°27' E 000°10'0 0.0
2018-Jul-12 22:29N 49°27' E 000°10'0 0.0
2018-Jul-12 21:59N 49°27' E 000°10'0 0.0
2018-Jul-12 21:29N 49°27' E 000°10'0 0.0
2018-Jul-12 20:59N 49°27' E 000°10'0 0.0
2018-Jul-12 20:29N 49°27' E 000°10'0 0.0
2018-Jul-12 19:59N 49°27' E 000°10'0 0.0
2018-Jul-12 19:29N 49°27' E 000°10'0 0.0
2018-Jul-12 18:59N 49°27' E 000°10'1 1.3
2018-Jul-12 18:30N 49°27' E 000°09'2 4.6
2018-Jul-12 18:00N 49°28' E 000°06'714.3
2018-Jul-12 17:30N 49°31' W 000°04'816.4
2018-Jul-12 17:00N 49°34' W 000°16'815.3
2018-Jul-12 16:30N 49°40' W 000°22'816.7
2018-Jul-12 16:00N 49°48' W 000°27'918.1
2018-Jul-12 15:30N 49°56' W 000°33'918.9
2018-Jul-12 15:00N 50°05' W 000°39'1118.7
2018-Jul-12 14:24N 50°15' W 000°46'719.0
2018-Jul-12 14:00N 50°22' W 000°51'917.1
2018-Jul-12 13:30N 50°30' W 000°56'714.8
2018-Jul-12 13:00N 50°37' W 000°58'510.8
2018-Jul-12 12:31N 50°42' W 000°58'714.7
2018-Jul-12 12:01N 50°45' W 001°08'713.2
2018-Jul-12 11:31N 50°47' W 001°18'4 8.6
2018-Jul-12 11:01N 50°51' W 001°20'4 8.7
2018-Jul-12 10:31N 50°54' W 001°25'1 1.9
2018-Jul-12 09:58N 50°54' W 001°27'0 0.0
2018-Jul-12 09:28N 50°54' W 001°27'0 0.0
2018-Jul-12 08:58N 50°54' W 001°27'0 0.0
2018-Jul-12 08:28N 50°54' W 001°27'0 0.0
2018-Jul-12 07:58N 50°54' W 001°27'0 0.0
2018-Jul-12 07:28N 50°54' W 001°27'0 0.0
2018-Jul-12 06:58N 50°54' W 001°27'0 0.0
2018-Jul-12 06:28N 50°54' W 001°27'0 0.0
2018-Jul-12 05:58N 50°54' W 001°27'0 0.0
2018-Jul-12 05:28N 50°54' W 001°27'0 0.0
2018-Jul-12 04:58N 50°54' W 001°27'0 0.0
2018-Jul-12 04:29N 50°54' W 001°27'0 0.0
2018-Jul-12 04:00N 50°54' W 001°27'0 0.0
2018-Jul-12 03:27N 50°54' W 001°27'0 0.0
2018-Jul-12 02:56N 50°54' W 001°27'0 0.0
2018-Jul-12 02:29N 50°54' W 001°27'0 0.0
2018-Jul-12 02:00N 50°54' W 001°27'0 0.0
2018-Jul-12 01:29N 50°54' W 001°27'0 0.0
2018-Jul-12 00:59N 50°54' W 001°27'0 0.0
2018-Jul-12 00:29N 50°54' W 001°27'0 0.0
2018-Jul-11 23:59N 50°54' W 001°27'0 0.0
2018-Jul-11 23:29N 50°54' W 001°27'0 0.0
2018-Jul-11 22:59N 50°54' W 001°27'0 0.0
2018-Jul-11 22:29N 50°54' W 001°27'0 0.0
2018-Jul-11 22:00N 50°54' W 001°27'0 0.0
2018-Jul-11 21:30N 50°54' W 001°27'0 0.0
2018-Jul-11 20:59N 50°54' W 001°27'0 0.0
2018-Jul-11 20:30N 50°54' W 001°27'0 0.0
2018-Jul-11 19:59N 50°54' W 001°27'0 0.0
2018-Jul-11 19:30N 50°54' W 001°27'0 0.0
2018-Jul-11 18:59N 50°54' W 001°27'0 0.0
2018-Jul-11 18:27N 50°54' W 001°27'0 0.0
2018-Jul-11 18:00N 50°54' W 001°27'0 0.0
2018-Jul-11 17:29N 50°54' W 001°27'0 0.0
2018-Jul-11 17:00N 50°54' W 001°27'0 0.0
2018-Jul-11 16:30N 50°54' W 001°27'0 0.0
2018-Jul-11 15:54N 50°54' W 001°27'0 0.0
2018-Jul-11 15:30N 50°54' W 001°27'0 0.0
2018-Jul-11 14:57N 50°54' W 001°27'0 0.0
2018-Jul-11 14:26N 50°54' W 001°27'0 0.0
2018-Jul-11 13:57N 50°54' W 001°27'0 0.0
2018-Jul-11 13:30N 50°54' W 001°27'0 0.0
2018-Jul-11 12:57N 50°54' W 001°27'0 0.0
2018-Jul-11 12:29N 50°54' W 001°27'0 0.0
2018-Jul-11 11:59N 50°54' W 001°27'0 0.0
2018-Jul-11 11:30N 50°54' W 001°27'0 0.0
2018-Jul-11 11:00N 50°54' W 001°27'0 0.0
2018-Jul-11 10:30N 50°54' W 001°27'0 0.0
2018-Jul-11 10:00N 50°54' W 001°27'0 0.0
2018-Jul-11 09:30N 50°54' W 001°27'0 0.1
2018-Jul-11 09:00N 50°54' W 001°27'2 3.3
2018-Jul-11 08:30N 50°53' W 001°24'4 8.0
2018-Jul-11 08:00N 50°51' W 001°20'4 8.9
2018-Jul-11 07:31N 50°46' W 001°18'713.1
2018-Jul-11 07:01N 50°46' W 001°08'714.5
2018-Jul-11 06:31N 50°43' W 000°58'612.5
2018-Jul-11 06:01N 50°36' W 000°57'4 7.1
2018-Jul-11 05:28N 50°33' W 001°01'0 0.1
2018-Jul-11 04:59N 50°33' W 001°01'0 0.1
2018-Jul-11 04:28N 50°33' W 001°01'0 0.1
2018-Jul-11 03:58N 50°33' W 001°01'0 0.2
2018-Jul-11 03:28N 50°33' W 001°01'0 0.2
2018-Jul-11 02:58N 50°33' W 001°02'0 0.2
2018-Jul-11 02:29N 50°33' W 001°02'0 0.0
2018-Jul-11 01:58N 50°33' W 001°02'0 0.0
2018-Jul-11 01:29N 50°33' W 001°02'0 0.0
2018-Jul-11 00:58N 50°33' W 001°02'0 0.0
2018-Jul-11 00:29N 50°33' W 001°02'0 0.0
2018-Jul-10 23:59N 50°33' W 001°02'0 0.0
2018-Jul-10 23:29N 50°33' W 001°02'0 0.0
2018-Jul-10 22:59N 50°33' W 001°02'0 0.0
2018-Jul-10 22:29N 50°33' W 001°02'0 0.0
2018-Jul-10 21:58N 50°33' W 001°02'0 0.0
2018-Jul-10 21:29N 50°33' W 001°02'0 0.4
2018-Jul-10 20:59N 50°33' W 001°01'0 0.2
2018-Jul-10 20:28N 50°33' W 001°01'0 0.1
2018-Jul-10 19:59N 50°33' W 001°01'0 0.0
2018-Jul-10 19:29N 50°33' W 001°01'0 0.0
2018-Jul-10 18:59N 50°33' W 001°01'0 0.0
2018-Jul-10 18:29N 50°33' W 001°01'0 0.0
2018-Jul-10 17:59N 50°33' W 001°01'0 0.0
2018-Jul-10 17:28N 50°33' W 001°01'0 0.0
2018-Jul-10 16:59N 50°33' W 001°01'0 0.0
2018-Jul-10 16:29N 50°33' W 001°01'0 0.0
2018-Jul-10 15:58N 50°33' W 001°01'0 0.0
2018-Jul-10 15:28N 50°33' W 001°01'0 0.1
2018-Jul-10 14:58N 50°33' W 001°01'0 0.3
2018-Jul-10 14:29N 50°33' W 001°02'0 0.2
2018-Jul-10 13:59N 50°33' W 001°02'0 0.0
2018-Jul-10 13:29N 50°33' W 001°02'0 0.0
2018-Jul-10 12:59N 50°33' W 001°02'0 0.0
2018-Jul-10 12:29N 50°33' W 001°02'0 0.0
2018-Jul-10 11:55N 50°33' W 001°02'0 0.0
2018-Jul-10 11:28N 50°33' W 001°02'0 0.0
2018-Jul-10 10:58N 50°33' W 001°02'0 0.0
2018-Jul-10 10:28N 50°33' W 001°02'0 0.0
2018-Jul-10 09:59N 50°33' W 001°02'0 0.0
2018-Jul-10 09:29N 50°33' W 001°02'0 0.1
2018-Jul-10 08:58N 50°33' W 001°02'0 0.1
2018-Jul-10 08:29N 50°33' W 001°02'0 0.1
2018-Jul-10 07:58N 50°33' W 001°01'0 0.3
2018-Jul-10 07:28N 50°33' W 001°01'0 0.1
2018-Jul-10 06:59N 50°33' W 001°01'0 0.0
2018-Jul-10 06:28N 50°33' W 001°01'0 0.0
2018-Jul-10 05:58N 50°33' W 001°01'0 0.0
2018-Jul-10 05:28N 50°33' W 001°01'0 0.0
2018-Jul-10 04:58N 50°33' W 001°01'0 0.0
2018-Jul-10 04:29N 50°33' W 001°01'0 0.2
2018-Jul-10 03:59N 50°33' W 001°01'0 0.2
2018-Jul-10 03:29N 50°33' W 001°01'0 0.5
2018-Jul-10 03:00N 50°33' W 001°02'3 6.9
2018-Jul-10 02:30N 50°32' W 000°56'612.2
2018-Jul-10 02:00N 50°31' W 000°47'612.4
2018-Jul-10 01:30N 50°30' W 000°37'612.9
2018-Jul-10 01:00N 50°29' W 000°27'713.1
2018-Jul-10 00:30N 50°28' W 000°17'612.9
2018-Jul-10 00:00N 50°28' W 000°07'713.2
2018-Jul-09 23:30N 50°29' E 000°03'713.4
2018-Jul-09 23:00N 50°31' E 000°13'713.3
2018-Jul-09 22:30N 50°33' E 000°23'613.1
2018-Jul-09 22:00N 50°34' E 000°33'713.3
2018-Jul-09 21:30N 50°38' E 000°42'713.4
2018-Jul-09 21:00N 50°42' E 000°51'713.4
2018-Jul-09 20:30N 50°45' E 000°59'713.5
2018-Jul-09 20:00N 50°49' E 001°08'713.3
2018-Jul-09 19:29N 50°54' E 001°17'612.8
2018-Jul-09 19:00N 50°58' E 001°23'613.0
2018-Jul-09 18:30N 51°03' E 001°30'713.4
2018-Jul-09 18:00N 51°08' E 001°38'713.2
2018-Jul-09 17:30N 51°13' E 001°45'713.2
2018-Jul-09 17:00N 51°18' E 001°51'713.3
2018-Jul-09 16:30N 51°24' E 001°57'713.5
2018-Jul-09 16:00N 51°29' E 002°03'713.5
2018-Jul-09 15:30N 51°34' E 002°10'713.4
2018-Jul-09 15:00N 51°39' E 002°18'713.4
2018-Jul-09 14:30N 51°44' E 002°25'713.4
2018-Jul-09 14:00N 51°49' E 002°32'713.6
2018-Jul-09 13:31N 51°55' E 002°38'713.3
2018-Jul-09 13:01N 52°00' E 002°44'612.7
2018-Jul-09 12:31N 52°02' E 002°54'713.5
2018-Jul-09 12:01N 52°02' E 003°05'713.3
2018-Jul-09 11:31N 52°03' E 003°16'713.4
2018-Jul-09 11:01N 52°03' E 003°27'713.4
2018-Jul-09 10:30N 52°03' E 003°38'713.8
2018-Jul-09 10:00N 52°04' E 003°49'5 9.1
2018-Jul-09 09:31N 52°02' E 003°56'611.7
2018-Jul-09 09:00N 51°59' E 004°04'1 2.4
2018-Jul-09 08:30N 51°58' E 004°03'2 3.5
2018-Jul-09 08:00N 51°58' E 003°60'1 1.4
2018-Jul-09 07:30N 51°57' E 003°60'0 0.1
2018-Jul-09 06:58N 51°57' E 003°60'0 0.0
2018-Jul-09 06:28N 51°57' E 003°60'0 0.0
2018-Jul-09 05:58N 51°57' E 003°60'0 0.0
2018-Jul-09 05:25N 51°57' E 003°60'0 0.0
2018-Jul-09 04:58N 51°57' E 003°60'0 0.0
2018-Jul-09 04:28N 51°57' E 003°60'0 0.0
2018-Jul-09 03:58N 51°57' E 003°60'0 0.0
2018-Jul-09 03:28N 51°57' E 003°60'0 0.0
2018-Jul-09 02:58N 51°57' E 003°60'0 0.0
2018-Jul-09 02:28N 51°57' E 003°60'0 0.0
2018-Jul-09 01:55N 51°57' E 003°60'0 0.0
2018-Jul-09 01:28N 51°57' E 003°60'0 0.1
2018-Jul-09 00:57N 51°57' E 003°60'0 0.1
2018-Jul-09 00:29N 51°57' E 003°60'0 0.0
2018-Jul-08 23:58N 51°57' E 003°60'0 0.0
2018-Jul-08 23:30N 51°57' E 003°60'0 0.0
2018-Jul-08 23:00N 51°57' E 003°60'0 0.0
2018-Jul-08 22:30N 51°57' E 003°60'0 0.0
2018-Jul-08 22:00N 51°57' E 003°60'0 0.0
2018-Jul-08 21:30N 51°57' E 003°60'0 0.0
2018-Jul-08 21:00N 51°57' E 003°60'0 0.0
2018-Jul-08 20:30N 51°57' E 003°60'0 0.0
2018-Jul-08 20:00N 51°57' E 003°60'0 0.0
2018-Jul-08 19:30N 51°57' E 003°60'0 0.0
2018-Jul-08 19:00N 51°57' E 003°60'0 0.0
2018-Jul-08 18:30N 51°57' E 003°60'0 0.0
2018-Jul-08 18:00N 51°57' E 003°60'0 0.0
2018-Jul-08 17:30N 51°57' E 003°60'  
Track history (hours):
 
Tides and Currents Weather Stations Pressure Air Temp Water Temp Dewpoint Dewpoint Depression Visibility Wind Speed Wind Dir Waves Ship Positions

CMA CGM Magellan

Last reported at 2018-Jul-18 17:17 UTC. Time now 2018-Jul-23 06:04 UTC.
Position N 36°17' E 015°20'.

Length 365 m; draft 14.7 m.

Type: Ship. MMSI: 235081888.

Date/timePositionNaut miles runAvg speedWind from/ knotsBaromVisibWave heightAir tempDewpointWater temp
2018-Jul-18 17:17N 36°17' E 015°20'517.6
2018-Jul-18 17:00N 36°18' E 015°15'918.0
2018-Jul-18 16:30N 36°21' E 015°04'1218.8
2018-Jul-18 15:53N 36°25' E 014°50'719.1
2018-Jul-18 15:30N 36°27' E 014°42'1019.0
2018-Jul-18 15:00N 36°30' E 014°31'1018.9
2018-Jul-18 14:30N 36°35' E 014°20'1818.5
2018-Jul-18 13:30N 36°43' E 013°60'1018.3
2018-Jul-18 12:58N 36°48' E 013°49'918.0
2018-Jul-18 12:29N 36°52' E 013°39'917.9
2018-Jul-18 12:00N 36°56' E 013°30'918.2
2018-Jul-18 11:30N 37°00' E 013°20'1818.1
2018-Jul-18 10:30N 37°09' E 013°00'918.0
2018-Jul-18 10:00N 37°13' E 012°50'917.9
2018-Jul-18 09:30N 37°17' E 012°40'1218.1
2018-Jul-18 08:50N 37°23' E 012°27'618.3
2018-Jul-18 08:30N 37°26' E 012°20'1318.2
2018-Jul-18 07:49N 37°31' E 012°06'618.1
2018-Jul-18 07:30N 37°34' E 011°59'33817.7
2018-Jul-17 12:26N 37°17' E 004°54'918.1
2018-Jul-17 11:56N 37°15' E 004°43'818.3
2018-Jul-17 11:30N 37°14' E 004°33'918.0
2018-Jul-17 11:00N 37°12' E 004°22'918.2
2018-Jul-17 10:30N 37°10' E 004°11'918.0
2018-Jul-17 10:00N 37°08' E 003°60'918.0
2018-Jul-17 09:30N 37°07' E 003°49'1017.9
2018-Jul-17 08:57N 37°05' E 003°37'817.9
2018-Jul-17 08:31N 37°04' E 003°27'1117.7
2018-Jul-17 07:54N 37°02' E 003°14'1717.9
2018-Jul-17 06:57N 36°59' E 002°53'817.8
2018-Jul-17 06:30N 36°57' E 002°43'917.9
2018-Jul-17 06:00N 36°56' E 002°32'918.2
2018-Jul-17 05:30N 36°54' E 002°20'1018.7
2018-Jul-17 04:59N 36°52' E 002°09'918.8
2018-Jul-17 04:30N 36°50' E 001°57'918.7
2018-Jul-17 04:00N 36°49' E 001°46'918.3
2018-Jul-17 03:30N 36°47' E 001°35'918.1
2018-Jul-17 03:00N 36°45' E 001°24'918.2
2018-Jul-17 02:30N 36°44' E 001°12'918.3
2018-Jul-17 02:00N 36°42' E 001°01'1018.6
2018-Jul-17 01:30N 36°40' E 000°50'919.4
2018-Jul-17 01:00N 36°39' E 000°38'919.1
2018-Jul-17 00:30N 36°37' E 000°26'1918.9
2018-Jul-16 23:30N 36°34' E 000°03'918.6
2018-Jul-16 23:00N 36°32' W 000°08'918.1
2018-Jul-16 22:30N 36°30' W 000°19'918.1
2018-Jul-16 22:00N 36°29' W 000°31'918.0
2018-Jul-16 21:30N 36°27' W 000°42'21618.8
2018-Jul-16 10:00N 35°60' W 005°08'1019.4
2018-Jul-16 09:31N 35°58' W 005°20'12818.7
2018-Jul-16 02:40N 36°17' W 007°57'418.2
2018-Jul-16 02:28N 36°18' W 008°01'918.0
2018-Jul-16 01:58N 36°20' W 008°12'10316.0
2018-Jul-15 19:32N 37°30' W 009°45'118.3
2018-Jul-15 19:30N 37°31' W 009°46'1318.4
2018-Jul-15 18:48N 37°43' W 009°49'518.5
2018-Jul-15 18:30N 37°48' W 009°51'1018.5
2018-Jul-15 17:58N 37°58' W 009°54'818.5
2018-Jul-15 17:30N 38°07' W 009°56'918.1
2018-Jul-15 17:00N 38°16' W 009°58'1418.2
2018-Jul-15 16:14N 38°29' W 010°02'418.3
2018-Jul-15 16:00N 38°33' W 010°04'918.8
2018-Jul-15 15:30N 38°42' W 010°06'918.0
2018-Jul-15 15:00N 38°51' W 010°07'918.3
2018-Jul-15 14:30N 39°00' W 010°08'918.1
2018-Jul-15 14:00N 39°09' W 010°08'918.0
2018-Jul-15 13:30N 39°18' W 010°08'1218.1
2018-Jul-15 12:51N 39°30' W 010°08'31317.9
2018-Jul-14 19:20N 44°40' W 009°08'618.3
2018-Jul-14 19:00N 44°45' W 009°04'918.5
2018-Jul-14 18:30N 44°54' W 008°58'918.2
2018-Jul-14 17:59N 45°02' W 008°51'2018.2
2018-Jul-14 16:53N 45°19' W 008°37'818.6
2018-Jul-14 16:25N 45°26' W 008°30'13518.1
2018-Jul-14 08:58N 47°26' W 006°59'2019.5
2018-Jul-14 07:58N 47°43' W 006°47'919.0
2018-Jul-14 07:29N 47°52' W 006°41'2018.8
2018-Jul-14 06:26N 48°08' W 006°25'818.2
2018-Jul-14 06:00N 48°15' W 006°19'918.4
2018-Jul-14 05:30N 48°23' W 006°12'918.2
2018-Jul-14 05:00N 48°31' W 006°06'918.3
2018-Jul-14 04:30N 48°39' W 005°59'918.3
2018-Jul-14 04:00N 48°47' W 005°53'917.7
2018-Jul-14 03:30N 48°53' W 005°43'917.7
2018-Jul-14 03:00N 48°59' W 005°33'918.0
2018-Jul-14 02:30N 49°03' W 005°21'918.0
2018-Jul-14 02:00N 49°08' W 005°09'918.2
2018-Jul-14 01:30N 49°13' W 004°57'918.9
2018-Jul-14 01:00N 49°18' W 004°45'2719.8
2018-Jul-13 23:39N 49°32' W 004°09'1219.8
2018-Jul-13 23:02N 49°39' W 003°54'119.7
2018-Jul-13 23:00N 49°39' W 003°53'1019.4
2018-Jul-13 22:28N 49°45' W 003°40'918.7
2018-Jul-13 21:59N 49°49' W 003°28'918.3
2018-Jul-13 21:30N 49°54' W 003°16'918.3
2018-Jul-13 21:00N 49°58' W 003°04'918.2
2018-Jul-13 20:30N 50°01' W 002°51'917.9
2018-Jul-13 20:00N 50°03' W 002°37'917.4
2018-Jul-13 19:31N 50°03' W 002°24'917.2
2018-Jul-13 19:00N 50°02' W 002°10'917.4
2018-Jul-13 18:31N 49°60' W 001°57'917.7
2018-Jul-13 18:00N 49°57' W 001°44'918.0
2018-Jul-13 17:30N 49°53' W 001°31'917.9
2018-Jul-13 17:00N 49°50' W 001°18'918.3
2018-Jul-13 16:30N 49°46' W 001°05'1019.5
2018-Jul-13 16:00N 49°43' W 000°51'1019.8
2018-Jul-13 15:30N 49°40' W 000°37'1019.6
2018-Jul-13 15:00N 49°36' W 000°23'1019.2
2018-Jul-13 14:30N 49°32' W 000°09'1312.6
2018-Jul-13 13:30N 49°27' E 000°09'1 1.9
2018-Jul-13 12:59N 49°27' E 000°10'0 0.0
2018-Jul-13 12:29N 49°27' E 000°10'0 0.0
2018-Jul-13 11:59N 49°27' E 000°10'0 0.0
2018-Jul-13 11:29N 49°27' E 000°10'0 0.0
2018-Jul-13 10:59N 49°27' E 000°10'0 0.0
2018-Jul-13 10:29N 49°27' E 000°10'0 0.0
2018-Jul-13 09:59N 49°27' E 000°10'0 0.0
2018-Jul-13 09:29N 49°27' E 000°10'0 0.0
2018-Jul-13 08:59N 49°27' E 000°10'0 0.0
2018-Jul-13 08:29N 49°27' E 000°10'0 0.0
2018-Jul-13 07:59N 49°27' E 000°10'0 0.0
2018-Jul-13 07:29N 49°27' E 000°10'0 0.0
2018-Jul-13 06:59N 49°27' E 000°10'0 0.0
2018-Jul-13 06:29N 49°27' E 000°10'0 0.0
2018-Jul-13 05:59N 49°27' E 000°10'0 0.0
2018-Jul-13 05:29N 49°27' E 000°10'0 0.0
2018-Jul-13 04:59N 49°27' E 000°10'0 0.0
2018-Jul-13 04:26N 49°27' E 000°10'0 0.0
2018-Jul-13 03:59N 49°27' E 000°10'0 0.0
2018-Jul-13 03:29N 49°27' E 000°10'0 0.0
2018-Jul-13 02:59N 49°27' E 000°10'0 0.0
2018-Jul-13 02:29N 49°27' E 000°10'0 0.0
2018-Jul-13 01:59N 49°27' E 000°10'0 0.0
2018-Jul-13 01:29N 49°27' E 000°10'0 0.0
2018-Jul-13 00:59N 49°27' E 000°10'0 0.0
2018-Jul-13 00:29N 49°27' E 000°10'0 0.0
2018-Jul-12 23:59N 49°27' E 000°10'0 0.0
2018-Jul-12 23:29N 49°27' E 000°10'0 0.0
2018-Jul-12 22:59N 49°27' E 000°10'0 0.0
2018-Jul-12 22:29N 49°27' E 000°10'0 0.0
2018-Jul-12 21:59N 49°27' E 000°10'0 0.0
2018-Jul-12 21:29N 49°27' E 000°10'0 0.0
2018-Jul-12 20:59N 49°27' E 000°10'0 0.0
2018-Jul-12 20:29N 49°27' E 000°10'0 0.0
2018-Jul-12 19:59N 49°27' E 000°10'0 0.0
2018-Jul-12 19:29N 49°27' E 000°10'0 0.0
2018-Jul-12 18:59N 49°27' E 000°10'1 1.3
2018-Jul-12 18:30N 49°27' E 000°09'2 4.6
2018-Jul-12 18:00N 49°28' E 000°06'714.3
2018-Jul-12 17:30N 49°31' W 000°04'816.4
2018-Jul-12 17:00N 49°34' W 000°16'815.3
2018-Jul-12 16:30N 49°40' W 000°22'816.7
2018-Jul-12 16:00N 49°48' W 000°27'918.1
2018-Jul-12 15:30N 49°56' W 000°33'918.9
2018-Jul-12 15:00N 50°05' W 000°39'1118.7
2018-Jul-12 14:24N 50°15' W 000°46'719.0
2018-Jul-12 14:00N 50°22' W 000°51'917.1
2018-Jul-12 13:30N 50°30' W 000°56'714.8
2018-Jul-12 13:00N 50°37' W 000°58'510.8
2018-Jul-12 12:31N 50°42' W 000°58'714.7
2018-Jul-12 12:01N 50°45' W 001°08'713.2
2018-Jul-12 11:31N 50°47' W 001°18'4 8.6
2018-Jul-12 11:01N 50°51' W 001°20'4 8.7
2018-Jul-12 10:31N 50°54' W 001°25'1 1.9
2018-Jul-12 09:58N 50°54' W 001°27'0 0.0
2018-Jul-12 09:28N 50°54' W 001°27'0 0.0
2018-Jul-12 08:58N 50°54' W 001°27'0 0.0
2018-Jul-12 08:28N 50°54' W 001°27'0 0.0
2018-Jul-12 07:58N 50°54' W 001°27'0 0.0
2018-Jul-12 07:28N 50°54' W 001°27'0 0.0
2018-Jul-12 06:58N 50°54' W 001°27'0 0.0
2018-Jul-12 06:28N 50°54' W 001°27'0 0.0
2018-Jul-12 05:58N 50°54' W 001°27'0 0.0
2018-Jul-12 05:28N 50°54' W 001°27'0 0.0
2018-Jul-12 04:58N 50°54' W 001°27'0 0.0
2018-Jul-12 04:29N 50°54' W 001°27'0 0.0
2018-Jul-12 04:00N 50°54' W 001°27'0 0.0
2018-Jul-12 03:27N 50°54' W 001°27'0 0.0
2018-Jul-12 02:56N 50°54' W 001°27'0 0.0
2018-Jul-12 02:29N 50°54' W 001°27'0 0.0
2018-Jul-12 02:00N 50°54' W 001°27'0 0.0
2018-Jul-12 01:29N 50°54' W 001°27'0 0.0
2018-Jul-12 00:59N 50°54' W 001°27'0 0.0
2018-Jul-12 00:29N 50°54' W 001°27'0 0.0
2018-Jul-11 23:59N 50°54' W 001°27'0 0.0
2018-Jul-11 23:29N 50°54' W 001°27'0 0.0
2018-Jul-11 22:59N 50°54' W 001°27'0 0.0
2018-Jul-11 22:29N 50°54' W 001°27'0 0.0
2018-Jul-11 22:00N 50°54' W 001°27'0 0.0
2018-Jul-11 21:30N 50°54' W 001°27'0 0.0
2018-Jul-11 20:59N 50°54' W 001°27'0 0.0
2018-Jul-11 20:30N 50°54' W 001°27'0 0.0
2018-Jul-11 19:59N 50°54' W 001°27'0 0.0
2018-Jul-11 19:30N 50°54' W 001°27'0 0.0
2018-Jul-11 18:59N 50°54' W 001°27'0 0.0
2018-Jul-11 18:27N 50°54' W 001°27'0 0.0
2018-Jul-11 18:00N 50°54' W 001°27'0 0.0
2018-Jul-11 17:29N 50°54' W 001°27'0 0.0
2018-Jul-11 17:00N 50°54' W 001°27'0 0.0
2018-Jul-11 16:30N 50°54' W 001°27'0 0.0
2018-Jul-11 15:54N 50°54' W 001°27'0 0.0
2018-Jul-11 15:30N 50°54' W 001°27'0 0.0
2018-Jul-11 14:57N 50°54' W 001°27'0 0.0
2018-Jul-11 14:26N 50°54' W 001°27'0 0.0
2018-Jul-11 13:57N 50°54' W 001°27'0 0.0
2018-Jul-11 13:30N 50°54' W 001°27'0 0.0
2018-Jul-11 12:57N 50°54' W 001°27'0 0.0
2018-Jul-11 12:29N 50°54' W 001°27'0 0.0
2018-Jul-11 11:59N 50°54' W 001°27'0 0.0
2018-Jul-11 11:30N 50°54' W 001°27'0 0.0
2018-Jul-11 11:00N 50°54' W 001°27'0 0.0
2018-Jul-11 10:30N 50°54' W 001°27'0 0.0
2018-Jul-11 10:00N 50°54' W 001°27'0 0.0
2018-Jul-11 09:30N 50°54' W 001°27'0 0.1
2018-Jul-11 09:00N 50°54' W 001°27'2 3.3
2018-Jul-11 08:30N 50°53' W 001°24'4 8.0
2018-Jul-11 08:00N 50°51' W 001°20'4 8.9
2018-Jul-11 07:31N 50°46' W 001°18'713.1
2018-Jul-11 07:01N 50°46' W 001°08'714.5
2018-Jul-11 06:31N 50°43' W 000°58'612.5
2018-Jul-11 06:01N 50°36' W 000°57'4 7.1
2018-Jul-11 05:28N 50°33' W 001°01'0 0.1
2018-Jul-11 04:59N 50°33' W 001°01'0 0.1
2018-Jul-11 04:28N 50°33' W 001°01'0 0.1
2018-Jul-11 03:58N 50°33' W 001°01'0 0.2
2018-Jul-11 03:28N 50°33' W 001°01'0 0.2
2018-Jul-11 02:58N 50°33' W 001°02'0 0.2
2018-Jul-11 02:29N 50°33' W 001°02'0 0.0
2018-Jul-11 01:58N 50°33' W 001°02'0 0.0
2018-Jul-11 01:29N 50°33' W 001°02'0 0.0
2018-Jul-11 00:58N 50°33' W 001°02'0 0.0
2018-Jul-11 00:29N 50°33' W 001°02'0 0.0
2018-Jul-10 23:59N 50°33' W 001°02'0 0.0
2018-Jul-10 23:29N 50°33' W 001°02'0 0.0
2018-Jul-10 22:59N 50°33' W 001°02'0 0.0
2018-Jul-10 22:29N 50°33' W 001°02'0 0.0
2018-Jul-10 21:58N 50°33' W 001°02'0 0.0
2018-Jul-10 21:29N 50°33' W 001°02'0 0.4
2018-Jul-10 20:59N 50°33' W 001°01'0 0.2
2018-Jul-10 20:28N 50°33' W 001°01'0 0.1
2018-Jul-10 19:59N 50°33' W 001°01'0 0.0
2018-Jul-10 19:29N 50°33' W 001°01'0 0.0
2018-Jul-10 18:59N 50°33' W 001°01'0 0.0
2018-Jul-10 18:29N 50°33' W 001°01'0 0.0
2018-Jul-10 17:59N 50°33' W 001°01'0 0.0
2018-Jul-10 17:28N 50°33' W 001°01'0 0.0
2018-Jul-10 16:59N 50°33' W 001°01'0 0.0
2018-Jul-10 16:29N 50°33' W 001°01'0 0.0
2018-Jul-10 15:58N 50°33' W 001°01'0 0.0
2018-Jul-10 15:28N 50°33' W 001°01'0 0.1
2018-Jul-10 14:58N 50°33' W 001°01'0 0.3
2018-Jul-10 14:29N 50°33' W 001°02'0 0.2
2018-Jul-10 13:59N 50°33' W 001°02'0 0.0
2018-Jul-10 13:29N 50°33' W 001°02'0 0.0
2018-Jul-10 12:59N 50°33' W 001°02'0 0.0
2018-Jul-10 12:29N 50°33' W 001°02'0 0.0
2018-Jul-10 11:55N 50°33' W 001°02'0 0.0
2018-Jul-10 11:28N 50°33' W 001°02'0 0.0
2018-Jul-10 10:58N 50°33' W 001°02'0 0.0
2018-Jul-10 10:28N 50°33' W 001°02'0 0.0
2018-Jul-10 09:59N 50°33' W 001°02'0 0.0
2018-Jul-10 09:29N 50°33' W 001°02'0 0.1
2018-Jul-10 08:58N 50°33' W 001°02'0 0.1
2018-Jul-10 08:29N 50°33' W 001°02'0 0.1
2018-Jul-10 07:58N 50°33' W 001°01'0 0.3
2018-Jul-10 07:28N 50°33' W 001°01'0 0.1
2018-Jul-10 06:59N 50°33' W 001°01'0 0.0
2018-Jul-10 06:28N 50°33' W 001°01'0 0.0
2018-Jul-10 05:58N 50°33' W 001°01'0 0.0
2018-Jul-10 05:28N 50°33' W 001°01'0 0.0
2018-Jul-10 04:58N 50°33' W 001°01'0 0.0
2018-Jul-10 04:29N 50°33' W 001°01'0 0.2
2018-Jul-10 03:59N 50°33' W 001°01'0 0.2
2018-Jul-10 03:29N 50°33' W 001°01'0 0.5
2018-Jul-10 03:00N 50°33' W 001°02'3 6.9
2018-Jul-10 02:30N 50°32' W 000°56'612.2
2018-Jul-10 02:00N 50°31' W 000°47'612.4
2018-Jul-10 01:30N 50°30' W 000°37'612.9
2018-Jul-10 01:00N 50°29' W 000°27'713.1
2018-Jul-10 00:30N 50°28' W 000°17'612.9
2018-Jul-10 00:00N 50°28' W 000°07'713.2
2018-Jul-09 23:30N 50°29' E 000°03'713.4
2018-Jul-09 23:00N 50°31' E 000°13'713.3
2018-Jul-09 22:30N 50°33' E 000°23'613.1
2018-Jul-09 22:00N 50°34' E 000°33'713.3
2018-Jul-09 21:30N 50°38' E 000°42'713.4
2018-Jul-09 21:00N 50°42' E 000°51'713.4
2018-Jul-09 20:30N 50°45' E 000°59'713.5
2018-Jul-09 20:00N 50°49' E 001°08'713.3
2018-Jul-09 19:29N 50°54' E 001°17'612.8
2018-Jul-09 19:00N 50°58' E 001°23'613.0
2018-Jul-09 18:30N 51°03' E 001°30'713.4
2018-Jul-09 18:00N 51°08' E 001°38'713.2
2018-Jul-09 17:30N 51°13' E 001°45'713.2
2018-Jul-09 17:00N 51°18' E 001°51'713.3
2018-Jul-09 16:30N 51°24' E 001°57'713.5
2018-Jul-09 16:00N 51°29' E 002°03'713.5
2018-Jul-09 15:30N 51°34' E 002°10'713.4
2018-Jul-09 15:00N 51°39' E 002°18'713.4
2018-Jul-09 14:30N 51°44' E 002°25'713.4
2018-Jul-09 14:00N 51°49' E 002°32'713.6
2018-Jul-09 13:31N 51°55' E 002°38'713.3
2018-Jul-09 13:01N 52°00' E 002°44'612.7
2018-Jul-09 12:31N 52°02' E 002°54'713.5
2018-Jul-09 12:01N 52°02' E 003°05'713.3
2018-Jul-09 11:31N 52°03' E 003°16'713.4
2018-Jul-09 11:01N 52°03' E 003°27'713.4
2018-Jul-09 10:30N 52°03' E 003°38'713.8
2018-Jul-09 10:00N 52°04' E 003°49'5 9.1
2018-Jul-09 09:31N 52°02' E 003°56'611.7
2018-Jul-09 09:00N 51°59' E 004°04'1 2.4
2018-Jul-09 08:30N 51°58' E 004°03'2 3.5
2018-Jul-09 08:00N 51°58' E 003°60'1 1.4
2018-Jul-09 07:30N 51°57' E 003°60'0 0.1
2018-Jul-09 06:58N 51°57' E 003°60'0 0.0
2018-Jul-09 06:28N 51°57' E 003°60'0 0.0
2018-Jul-09 05:58N 51°57' E 003°60'0 0.0
2018-Jul-09 05:25N 51°57' E 003°60'0 0.0
2018-Jul-09 04:58N 51°57' E 003°60'0 0.0
2018-Jul-09 04:28N 51°57' E 003°60'0 0.0
2018-Jul-09 03:58N 51°57' E 003°60'0 0.0
2018-Jul-09 03:28N 51°57' E 003°60'0 0.0
2018-Jul-09 02:58N 51°57' E 003°60'0 0.0
2018-Jul-09 02:28N 51°57' E 003°60'0 0.0
2018-Jul-09 01:55N 51°57' E 003°60'0 0.0
2018-Jul-09 01:28N 51°57' E 003°60'0 0.1
2018-Jul-09 00:57N 51°57' E 003°60'0 0.1
2018-Jul-09 00:29N 51°57' E 003°60'0 0.0
2018-Jul-08 23:58N 51°57' E 003°60'0 0.0
2018-Jul-08 23:30N 51°57' E 003°60'0 0.0
2018-Jul-08 23:00N 51°57' E 003°60'0 0.0
2018-Jul-08 22:30N 51°57' E 003°60'0 0.0
2018-Jul-08 22:00N 51°57' E 003°60'0 0.0
2018-Jul-08 21:30N 51°57' E 003°60'0 0.0
2018-Jul-08 21:00N 51°57' E 003°60'0 0.0
2018-Jul-08 20:30N 51°57' E 003°60'0 0.0
2018-Jul-08 20:00N 51°57' E 003°60'0 0.0
2018-Jul-08 19:30N 51°57' E 003°60'0 0.0
2018-Jul-08 19:00N 51°57' E 003°60'0 0.0
2018-Jul-08 18:30N 51°57' E 003°60'0 0.0
2018-Jul-08 18:00N 51°57' E 003°60'0 0.0
2018-Jul-08 17:30N 51°57' E 003°60'  

Dump ship's entire track history